Grafton, Ohio
Current Conditions -  °F | °C
As of 7:53 AM on Monday 22 Dec 2014 (Local Time) from KLPR Reporting Station
Haze Haze  
Wind Chill: 17°   Ceiling: Unl
Heat Index: 23°   Visibility: 5mi
Dew Point: 20°   Wind: 5mph
Humidity: 88%   Direction: 160°SSE
Pressure: 30.11"   Gusts: NA
Location:  41.27°N, 82.05°W
Report Text: KLPR 221253Z AUTO 16004KT 5SM BR CLR M05/M07 A3011 RMK AO2 SLP207 T10501067 TSNO
Loading
Personal Weather Stations






























Interactive Weather Map New forecast layout! Learn more

10-Day Weather Forecast

Advertisements
Track Severe Weather on mobile